Time;durP1;ratioP1;P1;durP2;ratioP2;P2;SDS_P1;SDS_P2;PMS_P1;PMS_P2;Temp;Humidity;BMP_temperature;BMP_pressure;BME280_temperature;BME280_humidity;BME280_pressure;Samples;Min_cycle;Max_cycle;Signal;HPM_P1;HPM_P2
2023/05/23 00:02:17;;;;;;;;;;;;;;;26.22;33.69;100703.53;6185364;23;19908;-63
2023/05/23 00:04:43;;;;;;;;;;;;;;;26.24;33.47;100701.31;6185079;23;19912;-61
2023/05/23 00:07:08;;;;;;;;;;;;;;;26.22;33.68;100686.19;6158742;23;19912;-62
2023/05/23 00:09:33;;;;;;;;;;;;;;;26.24;33.20;100692.22;6185295;23;20027;-62
2023/05/23 00:11:59;;;;;;;;;;;;;;;26.20;33.82;100689.22;6184839;23;19919;-63
2023/05/23 00:14:25;;;;;;;;;;;;;;;26.13;34.80;100685.19;6184729;23;20310;-62
2023/05/23 00:16:50;;;;;;;;;;;;;;;26.09;34.46;100679.47;6185354;23;19916;-61
2023/05/23 00:19:16;;;;;;;;;;;;;;;26.13;34.66;100688.75;6185180;23;19915;-62
2023/05/23 00:21:49;;;;;;;;;;;;;;;26.14;34.11;100687.66;6184976;23;20344;-61
2023/05/23 00:24:17;;;;;;;;;;;;;;;26.09;34.48;100679.47;6185216;23;19991;-62
2023/05/23 00:26:42;;;;;;;;;;;;;;;26.06;34.14;100675.38;6184994;23;20379;-62
2023/05/23 00:29:14;;;;;;;;;;;;;;;26.04;34.68;100687.78;6185376;23;19954;-62
2023/05/23 00:31:39;;;;;;;;;;;;;;;26.02;34.64;100676.22;6185170;23;19912;-62
2023/05/23 00:34:04;;;;;;;;;;;;;;;25.97;34.77;100670.81;6184892;23;19958;-62
2023/05/23 00:36:30;;;;;;;;;;;;;;;25.91;34.78;100667.25;6184737;23;19971;-62
2023/05/23 00:38:55;;;;;;;;;;;;;;;25.90;34.65;100665.59;6184118;23;19908;-62
2023/05/23 00:41:20;;;;;;;;;;;;;;;25.88;34.97;100663.13;6184909;23;19912;-61
2023/05/23 00:43:45;;;;;;;;;;;;;;;25.85;34.97;100663.75;6185104;23;19915;-62
2023/05/23 00:46:11;;;;;;;;;;;;;;;25.82;34.71;100669.00;6184902;23;19912;-61
2023/05/23 00:48:37;;;;;;;;;;;;;;;25.83;34.12;100659.63;6184809;23;19939;-61
2023/05/23 00:51:03;;;;;;;;;;;;;;;25.83;34.82;100654.13;6184930;23;19909;-61
2023/05/23 00:53:28;;;;;;;;;;;;;;;25.86;35.41;100653.53;6158714;23;20346;-61
2023/05/23 00:55:54;;;;;;;;;;;;;;;25.88;34.81;100643.88;6185151;23;20326;-61
2023/05/23 00:58:19;;;;;;;;;;;;;;;25.76;34.28;100617.88;6184810;23;19913;-61
2023/05/23 01:00:45;;;;;;;;;;;;;;;25.91;34.52;100649.91;6184548;23;19908;-61
2023/05/23 01:03:16;;;;;;;;;;;;;;;25.87;34.71;100644.16;6184533;23;19912;-61
2023/05/23 01:05:42;;;;;;;;;;;;;;;25.86;35.13;100642.53;6184860;23;19930;-62
2023/05/23 01:08:08;;;;;;;;;;;;;;;25.90;34.78;100638.09;6184537;23;19987;-61
2023/05/23 01:10:33;;;;;;;;;;;;;;;25.88;35.15;100635.63;6184678;23;19935;-62
2023/05/23 01:13:18;;;;;;;;;;;;;;;25.86;35.46;100632.34;6184647;23;19943;-62
2023/05/23 01:15:48;;;;;;;;;;;;;;;25.82;35.12;100636.00;6109012;23;19912;-62
2023/05/23 01:18:25;;;;;;;;;;;;;;;25.88;34.48;100632.06;6184736;23;20044;-62
2023/05/23 01:20:51;;;;;;;;;;;;;;;25.91;34.71;100630.63;6184719;23;20646;-59
2023/05/23 01:23:19;;;;;;;;;;;;;;;25.91;34.20;100627.88;6184782;23;19908;-60
2023/05/23 01:25:49;;;;;;;;;;;;;;;25.97;34.18;100624.81;6184385;23;20190;-62
2023/05/23 01:28:19;;;;;;;;;;;;;;;25.89;34.30;100619.91;6184546;23;19963;-62
2023/05/23 01:30:45;;;;;;;;;;;;;;;25.87;34.36;100630.41;6185720;23;20250;-63
2023/05/23 01:33:12;;;;;;;;;;;;;;;25.88;34.83;100621.06;6186376;23;19908;-62
2023/05/23 01:35:38;;;;;;;;;;;;;;;25.80;34.58;100624.47;6186459;23;20242;-62
2023/05/23 01:38:04;;;;;;;;;;;;;;;25.76;34.73;100626.13;6185933;23;19908;-61
2023/05/23 01:40:29;;;;;;;;;;;;;;;25.72;34.53;100625.88;6186569;23;19912;-61
2023/05/23 01:42:56;;;;;;;;;;;;;;;25.66;34.56;100611.38;6186503;23;19913;-62
2023/05/23 01:45:25;;;;;;;;;;;;;;;25.62;35.01;100610.31;6186504;23;19951;-62
2023/05/23 01:47:51;;;;;;;;;;;;;;;25.64;34.22;100602.59;6186762;23;19959;-63
2023/05/23 01:50:16;;;;;;;;;;;;;;;25.68;34.50;100613.84;6186700;23;19908;-62
2023/05/23 01:52:42;;;;;;;;;;;;;;;25.65;34.26;100607.00;6186534;23;20394;-59
2023/05/23 01:55:08;;;;;;;;;;;;;;;25.66;34.82;100610.56;6187305;23;19908;-60
2023/05/23 01:57:34;;;;;;;;;;;;;;;25.66;34.90;100611.38;6187128;23;19915;-62
2023/05/23 01:59:59;;;;;;;;;;;;;;;25.63;34.61;100611.13;6187508;23;19932;-62
2023/05/23 02:02:25;;;;;;;;;;;;;;;25.61;34.98;100602.34;6187054;23;20210;-60
2023/05/23 02:04:50;;;;;;;;;;;;;;;25.56;34.18;100600.50;6186253;23;19908;-61
2023/05/23 02:07:15;;;;;;;;;;;;;;;25.53;34.98;100597.50;6186410;23;19916;-61
2023/05/23 02:09:40;;;;;;;;;;;;;;;25.54;35.10;100588.13;6186037;23;19914;-61
2023/05/23 02:12:06;;;;;;;;;;;;;;;25.53;34.94;100590.06;6185940;23;19912;-61
2023/05/23 02:14:32;;;;;;;;;;;;;;;25.53;34.43;100592.81;6186257;23;19909;-62
2023/05/23 02:16:57;;;;;;;;;;;;;;;25.55;34.60;100584.28;6185981;23;19916;-60
2023/05/23 02:19:22;;;;;;;;;;;;;;;25.52;34.42;100593.94;6186176;23;19943;-61
2023/05/23 02:21:47;;;;;;;;;;;;;;;25.45;34.77;100586.03;6186113;23;19909;-61
2023/05/23 02:24:13;;;;;;;;;;;;;;;25.47;34.32;100588.47;6185981;23;19909;-62
2023/05/23 02:26:38;;;;;;;;;;;;;;;25.45;34.89;100588.78;6159445;23;19916;-62
2023/05/23 02:29:03;;;;;;;;;;;;;;;25.41;34.70;100595.97;6186207;23;19990;-61
2023/05/23 02:31:29;;;;;;;;;;;;;;;25.42;34.81;100586.59;6185628;23;19912;-61
2023/05/23 02:33:55;;;;;;;;;;;;;;;25.44;35.17;100581.63;6185737;23;19959;-62
2023/05/23 02:36:20;;;;;;;;;;;;;;;25.49;34.13;100594.50;6185358;23;19920;-61
2023/05/23 02:38:45;;;;;;;;;;;;;;;25.49;34.63;100583.50;6184590;23;19991;-62
2023/05/23 02:41:11;;;;;;;;;;;;;;;25.44;34.26;100586.31;6159614;23;19984;-62
2023/05/23 02:43:36;;;;;;;;;;;;;;;25.39;34.60;100580.84;6186009;23;19908;-62
2023/05/23 02:46:02;;;;;;;;;;;;;;;25.38;34.59;100577.28;6185617;23;19919;-62
2023/05/23 02:48:27;;;;;;;;;;;;;;;25.41;34.52;100584.16;6159618;23;19987;-62
2023/05/23 02:50:52;;;;;;;;;;;;;;;25.43;34.34;100580.00;6185798;23;19967;-60
2023/05/23 02:53:17;;;;;;;;;;;;;;;25.44;35.01;100576.13;6185674;23;19986;-62
2023/05/23 02:55:43;;;;;;;;;;;;;;;25.49;34.96;100580.75;6185861;23;19913;-62
2023/05/23 02:58:08;;;;;;;;;;;;;;;25.51;35.09;100584.03;6185644;23;19908;-62
2023/05/23 03:00:33;;;;;;;;;;;;;;;25.52;35.20;100577.44;6185960;23;19931;-62
2023/05/23 03:02:59;;;;;;;;;;;;;;;25.57;34.81;100584.81;6185803;23;19916;-61
2023/05/23 03:05:24;;;;;;;;;;;;;;;25.56;35.13;100584.00;6185498;23;19975;-61
2023/05/23 03:07:50;;;;;;;;;;;;;;;25.58;34.81;100584.50;6185571;23;19913;-61
2023/05/23 03:10:16;;;;;;;;;;;;;;;25.57;35.51;100585.63;6159519;23;19916;-61
2023/05/23 03:12:42;;;;;;;;;;;;;;;25.47;36.29;100582.97;6185369;23;19908;-60
2023/05/23 03:15:08;;;;;;;;;;;;;;;25.34;36.27;100572.69;6185617;23;19908;-60
2023/05/23 03:17:33;;;;;;;;;;;;;;;25.23;37.13;100581.00;6185620;23;19908;-63
2023/05/23 03:19:59;;;;;;;;;;;;;;;25.26;37.84;100574.13;6185763;23;19912;-62
2023/05/23 03:22:24;;;;;;;;;;;;;;;25.33;37.98;100569.09;6159149;23;19970;-61
2023/05/23 03:24:49;;;;;;;;;;;;;;;25.40;37.38;100568.75;6185155;23;19915;-60
2023/05/23 03:27:15;;;;;;;;;;;;;;;25.52;36.94;100560.94;6184924;23;19912;-59
2023/05/23 03:29:40;;;;;;;;;;;;;;;25.61;36.25;100553.69;6185521;23;19908;-60
2023/05/23 03:32:05;;;;;;;;;;;;;;;25.61;36.93;100563.84;6185480;23;19908;-60
2023/05/23 03:34:32;;;;;;;;;;;;;;;25.58;37.30;100562.50;6185010;23;20280;-60
2023/05/23 03:36:58;;;;;;;;;;;;;;;25.41;38.18;100571.22;6185131;23;20245;-60
2023/05/23 03:39:24;;;;;;;;;;;;;;;25.32;37.68;100561.16;6184460;23;19952;-60
2023/05/23 03:41:49;;;;;;;;;;;;;;;25.37;38.66;100541.84;6185086;23;19912;-60
2023/05/23 03:44:14;;;;;;;;;;;;;;;25.43;39.08;100546.19;6185042;23;19908;-61
2023/05/23 03:46:40;;;;;;;;;;;;;;;25.52;38.33;100552.69;6184828;23;19912;-61
2023/05/23 03:49:05;;;;;;;;;;;;;;;25.54;38.30;100546.88;6185345;23;19987;-61
2023/05/23 03:51:30;;;;;;;;;;;;;;;25.53;37.89;100548.00;6185110;23;19931;-60
2023/05/23 03:53:56;;;;;;;;;;;;;;;25.59;37.31;100546.81;6184458;23;19908;-59
2023/05/23 03:56:21;;;;;;;;;;;;;;;25.56;37.42;100552.94;6184834;23;19912;-60
2023/05/23 03:58:47;;;;;;;;;;;;;;;25.32;37.69;100555.66;6184997;23;19908;-61
2023/05/23 04:01:12;;;;;;;;;;;;;;;25.23;37.93;100548.03;6185021;23;19934;-62
2023/05/23 04:03:37;;;;;;;;;;;;;;;25.22;37.95;100551.03;6158793;23;20479;-60
2023/05/23 04:06:03;;;;;;;;;;;;;;;25.29;37.80;100541.34;6184900;23;20237;-61
2023/05/23 04:08:32;;;;;;;;;;;;;;;25.25;37.72;100543.03;6184758;23;19915;-61
2023/05/23 04:10:57;;;;;;;;;;;;;;;25.29;37.83;100541.34;6184893;23;20385;-61
2023/05/23 04:13:25;;;;;;;;;;;;;;;25.19;37.98;100557.13;6184691;23;19932;-61
2023/05/23 04:15:51;;;;;;;;;;;;;;;25.06;38.20;100559.41;6184874;23;19908;-61
2023/05/23 04:18:16;;;;;;;;;;;;;;;24.79;38.96;100561.84;6184942;23;19915;-59
2023/05/23 04:20:42;;;;;;;;;;;;;;;24.44;41.90;100558.22;6184838;23;20318;-62
2023/05/23 04:23:07;;;;;;;;;;;;;;;24.44;42.47;100530.75;6184978;23;20065;-62
2023/05/23 04:25:33;;;;;;;;;;;;;;;24.51;43.17;100537.56;6184961;23;19908;-59
2023/05/23 04:28:00;;;;;;;;;;;;;;;24.37;42.84;100552.22;6184577;23;19927;-62
2023/05/23 04:30:25;;;;;;;;;;;;;;;24.33;43.30;100543.72;6184754;23;19909;-61
2023/05/23 04:32:51;;;;;;;;;;;;;;;24.35;43.83;100547.03;6184926;23;20226;-61
2023/05/23 04:35:16;;;;;;;;;;;;;;;24.25;43.80;100549.81;6184822;23;20246;-62
2023/05/23 04:37:41;;;;;;;;;;;;;;;24.35;43.42;100538.78;6183702;23;19970;-61
2023/05/23 04:40:07;;;;;;;;;;;;;;;24.38;43.78;100534.66;6185057;23;19991;-61
2023/05/23 04:42:33;;;;;;;;;;;;;;;24.43;43.47;100520.91;6133433;23;20314;-61
2023/05/23 04:44:58;;;;;;;;;;;;;;;24.49;43.54;100508.75;6184729;23;20047;-61
2023/05/23 04:47:27;;;;;;;;;;;;;;;24.54;43.33;100506.81;6184863;23;19912;-61
2023/05/23 04:49:53;;;;;;;;;;;;;;;24.64;43.44;100508.66;6184283;23;19908;-61
2023/05/23 04:52:19;;;;;;;;;;;;;;;24.73;42.54;100506.13;6184470;23;19908;-60
2023/05/23 04:54:45;;;;;;;;;;;;;;;24.77;42.75;100507.19;6158263;23;19974;-61
2023/05/23 04:57:11;;;;;;;;;;;;;;;24.80;42.19;100498.38;6184977;23;19908;-60
2023/05/23 04:59:37;;;;;;;;;;;;;;;24.89;42.26;100491.16;6158091;23;20035;-61
2023/05/23 05:02:02;;;;;;;;;;;;;;;24.94;41.71;100487.53;6184436;23;20214;-61
2023/05/23 05:04:27;;;;;;;;;;;;;;;24.96;43.06;100482.56;6184929;23;20229;-61
2023/05/23 05:06:52;;;;;;;;;;;;;;;24.99;42.96;100482.00;6186160;23;19919;-61
2023/05/23 05:09:18;;;;;;;;;;;;;;;25.07;42.12;100478.63;6186790;23;19947;-61
2023/05/23 05:11:43;;;;;;;;;;;;;;;25.15;42.50;100485.41;6186155;23;20356;-60
2023/05/23 05:14:08;;;;;;;;;;;;;;;25.21;41.79;100491.69;6186620;23;19919;-62
2023/05/23 05:16:35;;;;;;;;;;;;;;;25.33;41.52;100492.09;6186398;23;20214;-60
2023/05/23 05:19:00;;;;;;;;;;;;;;;25.24;41.13;100502.94;6186436;23;19913;-61
2023/05/23 05:21:25;;;;;;;;;;;;;;;25.17;42.08;100509.88;6186247;23;19915;-61
2023/05/23 05:23:51;;;;;;;;;;;;;;;25.16;42.57;100513.72;6186344;23;19908;-61
2023/05/23 05:26:16;;;;;;;;;;;;;;;25.19;42.80;100513.13;6186374;23;19919;-62
2023/05/23 05:28:42;;;;;;;;;;;;;;;25.18;41.88;100506.81;6159930;23;20317;-62
2023/05/23 05:31:07;;;;;;;;;;;;;;;25.25;42.62;100512.00;6186340;23;19908;-61
2023/05/23 05:33:34;;;;;;;;;;;;;;;25.33;42.81;100513.28;6186013;23;20313;-63
2023/05/23 05:36:03;;;;;;;;;;;;;;;25.35;43.04;100511.88;6159415;23;20321;-61
2023/05/23 05:38:29;;;;;;;;;;;;;;;25.37;42.85;100506.09;6185302;23;19908;-61
2023/05/23 05:40:54;;;;;;;;;;;;;;;25.43;42.65;100508.50;6185938;23;19908;-61
2023/05/23 05:43:20;;;;;;;;;;;;;;;25.45;42.37;100505.47;6186009;23;19912;-59
2023/05/23 05:45:45;;;;;;;;;;;;;;;25.50;42.16;100502.63;6185820;23;20491;-61
2023/05/23 05:48:10;;;;;;;;;;;;;;;25.47;41.96;100506.00;6185835;23;19912;-60
2023/05/23 05:50:36;;;;;;;;;;;;;;;25.53;42.27;100507.56;6186072;23;19936;-62
2023/05/23 05:53:02;;;;;;;;;;;;;;;25.56;42.47;100503.41;6186214;23;20238;-62
2023/05/23 05:55:27;;;;;;;;;;;;;;;25.41;41.06;100513.47;6185641;23;20075;-62
2023/05/23 05:57:52;;;;;;;;;;;;;;;25.25;41.37;100521.06;6185455;23;20342;-62
2023/05/23 06:00:18;;;;;;;;;;;;;;;25.09;41.33;100530.53;6185845;23;20025;-62
2023/05/23 06:02:46;;;;;;;;;;;;;;;24.82;41.70;100531.88;6184678;23;19954;-63
2023/05/23 06:05:11;;;;;;;;;;;;;;;24.70;41.96;100524.00;6185594;23;19909;-62
2023/05/23 06:07:37;;;;;;;;;;;;;;;24.93;41.49;100525.19;6185550;23;19912;-61
2023/05/23 06:10:02;;;;;;;;;;;;;;;25.16;41.31;100519.22;6159767;23;20011;-60
2023/05/23 06:12:27;;;;;;;;;;;;;;;25.33;41.27;100508.59;6185731;23;19915;-62
2023/05/23 06:14:53;;;;;;;;;;;;;;;25.44;41.50;100510.13;6185743;23;19915;-63
2023/05/23 06:17:18;;;;;;;;;;;;;;;25.60;41.48;100524.53;6185000;23;19919;-62
2023/05/23 06:19:43;;;;;;;;;;;;;;;25.69;41.48;100517.28;6185394;23;19919;-62
2023/05/23 06:22:08;;;;;;;;;;;;;;;25.78;41.20;100514.69;6159037;23;20352;-63
2023/05/23 06:24:34;;;;;;;;;;;;;;;25.73;40.88;100527.69;6185453;23;19908;-62
2023/05/23 06:26:59;;;;;;;;;;;;;;;25.67;40.67;100527.75;6159269;23;19946;-61
2023/05/23 06:29:24;;;;;;;;;;;;;;;25.60;40.13;100516.28;6185860;23;20318;-62
2023/05/23 06:31:50;;;;;;;;;;;;;;;25.77;39.82;100512.22;6186238;23;20051;-61
2023/05/23 06:34:16;;;;;;;;;;;;;;;25.97;40.02;100508.44;6185535;23;20275;-61
2023/05/23 06:36:41;;;;;;;;;;;;;;;26.05;40.07;100516.81;6185160;23;20007;-61
2023/05/23 06:39:08;;;;;;;;;;;;;;;26.14;40.44;100522.50;6133607;23;19995;-62
2023/05/23 06:41:34;;;;;;;;;;;;;;;26.30;40.76;100512.09;6185774;23;19959;-60
2023/05/23 06:43:59;;;;;;;;;;;;;;;26.44;40.26;100501.94;6185565;23;19920;-61
2023/05/23 06:46:24;;;;;;;;;;;;;;;26.60;38.83;100499.00;6185499;23;19972;-60
2023/05/23 06:48:50;;;;;;;;;;;;;;;26.71;39.83;100497.69;6185571;23;19967;-61
2023/05/23 06:51:15;;;;;;;;;;;;;;;26.83;39.72;100494.47;6185948;23;19915;-60
2023/05/23 06:53:40;;;;;;;;;;;;;;;26.92;38.94;100498.16;6185249;23;20219;-61
2023/05/23 06:56:05;;;;;;;;;;;;;;;27.11;38.76;100509.09;6185329;23;19908;-60
2023/05/23 06:58:31;;;;;;;;;;;;;;;27.19;38.19;100500.16;6185520;23;19936;-61
2023/05/23 07:00:56;;;;;;;;;;;;;;;27.30;38.46;100494.47;6185798;23;19940;-61
2023/05/23 07:03:21;;;;;;;;;;;;;;;27.49;38.63;100497.13;6185258;23;19908;-62
2023/05/23 07:05:46;;;;;;;;;;;;;;;27.55;37.68;100505.00;6185368;23;19912;-61
2023/05/23 07:08:12;;;;;;;;;;;;;;;27.52;38.67;100515.81;6185142;23;20336;-61
2023/05/23 07:10:40;;;;;;;;;;;;;;;27.49;39.18;100514.50;6185392;23;19952;-61
2023/05/23 07:13:05;;;;;;;;;;;;;;;27.53;38.52;100518.28;6158832;23;20207;-61
2023/05/23 07:15:30;;;;;;;;;;;;;;;27.48;37.82;100520.31;6185388;23;19967;-61
2023/05/23 07:17:55;;;;;;;;;;;;;;;27.45;37.40;100519.00;6185498;23;19908;-61
2023/05/23 07:20:21;;;;;;;;;;;;;;;27.62;37.56;100515.63;6158771;23;19979;-61
2023/05/23 07:22:46;;;;;;;;;;;;;;;27.76;37.43;100516.41;6185368;23;19915;-62
2023/05/23 07:25:11;;;;;;;;;;;;;;;27.77;37.11;100520.81;6185331;23;19909;-61
2023/05/23 07:27:37;;;;;;;;;;;;;;;27.79;37.16;100518.56;6185194;23;19919;-63
2023/05/23 07:30:03;;;;;;;;;;;;;;;27.83;36.66;100518.78;6185214;23;19915;-61
2023/05/23 07:32:28;;;;;;;;;;;;;;;27.88;36.91;100512.31;6185368;23;19909;-62
2023/05/23 07:34:53;;;;;;;;;;;;;;;27.97;37.70;100513.25;6185000;23;19919;-62
2023/05/23 07:37:19;;;;;;;;;;;;;;;28.15;36.69;100511.47;6183893;23;20388;-61
2023/05/23 07:39:44;;;;;;;;;;;;;;;28.38;37.46;100520.63;6185063;23;20317;-61
2023/05/23 07:42:09;;;;;;;;;;;;;;;28.53;36.54;100522.25;6184946;23;20470;-62
2023/05/23 07:44:35;;;;;;;;;;;;;;;28.70;36.11;100527.06;6184676;23;19908;-61
2023/05/23 07:47:00;;;;;;;;;;;;;;;28.76;35.89;100532.16;6158369;23;19919;-61
2023/05/23 07:49:25;;;;;;;;;;;;;;;28.74;36.08;100534.41;6184687;23;19915;-62
2023/05/23 07:51:51;;;;;;;;;;;;;;;28.63;35.23;100535.78;6185249;23;19927;-62
2023/05/23 07:54:16;;;;;;;;;;;;;;;28.68;35.54;100530.16;6184819;23;19915;-60
2023/05/23 07:56:42;;;;;;;;;;;;;;;28.49;35.06;100541.34;6185271;23;19963;-59
2023/05/23 07:59:07;;;;;;;;;;;;;;;27.90;35.54;100537.72;6185299;23;20229;-60
2023/05/23 08:01:32;;;;;;;;;;;;;;;27.92;35.81;100550.06;6185082;23;19915;-59
2023/05/23 08:03:58;;;;;;;;;;;;;;;27.70;35.09;100548.00;6184934;23;19916;-60
2023/05/23 08:06:23;;;;;;;;;;;;;;;27.54;35.81;100554.94;6184951;23;20314;-60
2023/05/23 08:08:49;;;;;;;;;;;;;;;27.65;35.84;100559.13;6185108;23;19987;-60
2023/05/23 08:11:15;;;;;;;;;;;;;;;27.62;35.99;100565.28;6184764;23;19908;-60
2023/05/23 08:13:40;;;;;;;;;;;;;;;27.42;36.24;100567.31;6184756;23;19958;-60
2023/05/23 08:16:08;;;;;;;;;;;;;;;27.21;36.19;100568.78;6185584;23;19915;-59
2023/05/23 08:18:35;;;;;;;;;;;;;;;27.17;36.50;100574.09;6184477;23;19908;-61
2023/05/23 08:21:01;;;;;;;;;;;;;;;27.16;35.72;100575.19;6184852;23;20322;-61
2023/05/23 08:23:27;;;;;;;;;;;;;;;26.97;36.68;100578.00;6184641;23;19915;-61
2023/05/23 08:25:53;;;;;;;;;;;;;;;26.69;36.75;100587.25;6184588;23;19912;-61
2023/05/23 08:28:18;;;;;;;;;;;;;;;26.67;37.81;100584.00;6184927;23;19908;-60
2023/05/23 08:30:44;;;;;;;;;;;;;;;26.99;37.34;100586.78;6184494;23;19908;-61
2023/05/23 08:33:09;;;;;;;;;;;;;;;27.15;36.83;100581.00;6184731;23;19916;-61
2023/05/23 08:35:35;;;;;;;;;;;;;;;27.34;36.71;100584.56;6184374;23;19951;-62
2023/05/23 08:38:04;;;;;;;;;;;;;;;27.51;36.60;100578.47;6184004;23;19909;-61
2023/05/23 08:40:30;;;;;;;;;;;;;;;27.56;36.36;100572.84;6184547;23;20353;-59
2023/05/23 08:42:56;;;;;;;;;;;;;;;27.75;35.96;100580.22;6184753;23;19908;-62
2023/05/23 08:45:21;;;;;;;;;;;;;;;27.90;35.60;100579.94;6158668;23;20545;-61
2023/05/23 08:47:47;;;;;;;;;;;;;;;27.94;35.19;100586.47;6184578;23;19996;-61
2023/05/23 08:50:16;;;;;;;;;;;;;;;27.97;35.54;100594.16;6184615;23;19908;-61
2023/05/23 08:52:43;;;;;;;;;;;;;;;27.94;34.59;100592.00;6184846;23;19908;-61
2023/05/23 08:55:10;;;;;;;;;;;;;;;28.05;35.93;100591.78;6184986;23;19909;-62
2023/05/23 08:57:37;;;;;;;;;;;;;;;27.84;34.97;100594.94;6185029;23;19908;-61
2023/05/23 09:00:09;;;;;;;;;;;;;;;27.74;35.15;100592.38;6185483;23;19908;-62
2023/05/23 09:02:34;;;;;;;;;;;;;;;27.65;35.63;100605.25;6185207;23;19915;-61
2023/05/23 09:04:59;;;;;;;;;;;;;;;27.51;35.23;100603.28;6184891;23;19940;-60
2023/05/23 09:07:27;;;;;;;;;;;;;;;27.32;35.02;100611.63;6185322;23;19912;-62
2023/05/23 09:09:52;;;;;;;;;;;;;;;27.01;35.72;100612.13;6185023;23;20221;-61
2023/05/23 09:12:21;;;;;;;;;;;;;;;26.75;36.01;100624.66;6184823;23;19909;-61
2023/05/23 09:14:47;;;;;;;;;;;;;;;26.46;36.80;100618.13;6184691;23;19909;-60
2023/05/23 09:17:17;;;;;;;;;;;;;;;26.08;36.95;100623.59;6184747;23;19978;-61
2023/05/23 09:19:42;;;;;;;;;;;;;;;26.07;38.47;100616.44;6184564;23;20341;-62
2023/05/23 09:22:07;;;;;;;;;;;;;;;25.75;40.82;100625.31;6184636;23;19908;-60
2023/05/23 09:24:34;;;;;;;;;;;;;;;25.53;41.58;100633.25;6184489;23;19954;-61
2023/05/23 09:27:00;;;;;;;;;;;;;;;24.90;44.45;100646.63;6184374;23;19916;-58
2023/05/23 09:29:26;;;;;;;;;;;;;;;24.68;43.94;100652.56;6184610;23;19915;-61
2023/05/23 09:31:58;;;;;;;;;;;;;;;24.45;45.29;100644.97;6184966;23;19975;-60
2023/05/23 09:34:23;;;;;;;;;;;;;;;24.67;44.93;100644.59;6184616;23;19909;-60
2023/05/23 09:36:49;;;;;;;;;;;;;;;24.48;43.01;100642.47;6184489;23;19920;-60
2023/05/23 09:39:14;;;;;;;;;;;;;;;24.43;43.49;100645.25;6183563;23;19959;-60
2023/05/23 09:41:39;;;;;;;;;;;;;;;24.21;43.13;100653.84;6184336;23;20384;-60
2023/05/23 09:44:07;;;;;;;;;;;;;;;24.26;42.26;100651.09;6184885;23;20281;-60
2023/05/23 09:46:34;;;;;;;;;;;;;;;24.29;42.93;100655.19;6184431;23;20338;-61
2023/05/23 09:48:59;;;;;;;;;;;;;;;24.67;42.51;100653.66;6184963;23;19991;-60
2023/05/23 09:51:25;;;;;;;;;;;;;;;24.85;41.65;100660.44;6184638;23;19982;-61
2023/05/23 09:53:51;;;;;;;;;;;;;;;25.13;42.09;100660.78;6186014;23;20214;-62
2023/05/23 09:56:16;;;;;;;;;;;;;;;25.42;40.95;100658.09;6160212;23;19909;-61
2023/05/23 09:58:49;;;;;;;;;;;;;;;25.73;41.01;100665.25;6159844;23;19909;-62
2023/05/23 10:01:15;;;;;;;;;;;;;;;25.91;40.03;100661.75;6186210;23;19916;-60
2023/05/23 10:03:46;;;;;;;;;;;;;;;26.25;40.15;100664.41;6186054;23;19999;-61
2023/05/23 10:06:16;;;;;;;;;;;;;;;26.55;39.88;100656.03;6186122;23;19966;-61
2023/05/23 10:08:47;;;;;;;;;;;;;;;26.92;41.06;100659.97;6186597;23;20310;-61
2023/05/23 10:11:13;;;;;;;;;;;;;;;27.37;38.39;100660.34;6185654;23;19909;-61
2023/05/23 10:13:42;;;;;;;;;;;;;;;27.74;38.85;100664.94;6185516;23;19912;-62
2023/05/23 10:16:11;;;;;;;;;;;;;;;27.73;37.33;100671.59;6185609;23;19915;-60
2023/05/23 10:18:42;;;;;;;;;;;;;;;27.68;37.99;100666.16;6185578;23;20281;-61
2023/05/23 10:21:10;;;;;;;;;;;;;;;27.89;38.38;100674.91;6160303;23;19936;-61
2023/05/23 10:23:36;;;;;;;;;;;;;;;28.07;36.61;100667.66;6186044;23;19960;-62
2023/05/23 10:26:03;;;;;;;;;;;;;;;28.04;37.86;100664.69;6186734;23;19970;-60
2023/05/23 10:28:32;;;;;;;;;;;;;;;28.13;38.01;100662.84;6186456;23;19982;-62
2023/05/23 10:30:58;;;;;;;;;;;;;;;28.31;36.32;100664.69;6186088;23;19930;-62
2023/05/23 10:33:24;;;;;;;;;;;;;;;28.53;36.35;100663.16;6185900;23;20314;-61
2023/05/23 10:35:55;;;;;;;;;;;;;;;28.66;37.14;100662.31;6159268;23;20187;-61
2023/05/23 10:38:39;;;;;;;;;;;;;;;28.77;38.06;100671.19;6184798;23;19990;-61
2023/05/23 10:41:12;;;;;;;;;;;;;;;28.70;36.80;100660.56;6185364;23;19954;-60
2023/05/23 10:44:01;;;;;;;;;;;;;;;28.53;35.40;100671.44;6185339;23;19914;-58
2023/05/23 10:47:00;;;;;;;;;;;;;;;28.37;36.32;100670.91;6185396;23;19952;-60
2023/05/23 10:49:44;;;;;;;;;;;;;;;28.34;35.79;100677.03;6096377;23;20302;-62
2023/05/23 10:52:11;;;;;;;;;;;;;;;28.13;35.45;100682.19;6185251;23;19984;-61
2023/05/23 10:54:44;;;;;;;;;;;;;;;28.02;35.36;100686.28;6185318;23;19909;-64
2023/05/23 10:57:11;;;;;;;;;;;;;;;28.27;35.85;100673.88;6185485;23;20277;-60
2023/05/23 10:59:37;;;;;;;;;;;;;;;28.89;35.14;100678.94;6185304;23;19908;-63
2023/05/23 11:02:07;;;;;;;;;;;;;;;29.21;33.83;100677.09;6185257;23;20272;-58
2023/05/23 11:04:33;;;;;;;;;;;;;;;28.94;31.34;100676.84;6185307;23;19916;-62
2023/05/23 11:06:59;;;;;;;;;;;;;;;28.75;32.55;100684.47;6185453;23;19913;-61
2023/05/23 11:09:24;;;;;;;;;;;;;;;28.47;34.59;100690.06;6185700;23;20000;-61
2023/05/23 11:11:52;;;;;;;;;;;;;;;28.26;32.91;100697.13;6185498;23;19913;-61
2023/05/23 11:14:38;;;;;;;;;;;;;;;27.91;31.96;100711.28;6185599;23;19908;-60
2023/05/23 11:17:10;;;;;;;;;;;;;;;27.01;34.52;100716.06;6160705;23;20003;-62
2023/05/23 11:19:36;;;;;;;;;;;;;;;26.93;36.22;100709.28;6158810;23;19947;-62
2023/05/23 11:22:02;;;;;;;;;;;;;;;27.10;36.41;100706.00;6158873;23;19908;-61
2023/05/23 11:24:46;;;;;;;;;;;;;;;27.08;36.24;100712.91;6185535;23;20249;-62
2023/05/23 11:27:11;;;;;;;;;;;;;;;27.32;36.55;100710.09;6185038;23;19920;-60
2023/05/23 11:29:37;;;;;;;;;;;;;;;27.68;37.35;100715.03;6185278;23;19908;-63
2023/05/23 11:32:09;;;;;;;;;;;;;;;27.87;36.41;100710.25;6185546;23;19919;-62
2023/05/23 11:34:36;;;;;;;;;;;;;;;27.90;36.28;100712.44;6184690;23;19908;-62
2023/05/23 11:37:02;;;;;;;;;;;;;;;28.07;36.07;100709.06;6185059;23;19938;-60
2023/05/23 11:39:27;;;;;;;;;;;;;;;28.20;35.10;100712.97;6184136;23;20354;-61
2023/05/23 11:41:59;;;;;;;;;;;;;;;28.10;33.04;100704.88;6185355;23;19919;-61
2023/05/23 11:44:25;;;;;;;;;;;;;;;28.24;34.01;100708.47;6184978;23;19912;-60
2023/05/23 11:47:06;;;;;;;;;;;;;;;28.49;33.91;100698.00;6184972;23;19921;-61
2023/05/23 11:49:36;;;;;;;;;;;;;;;28.62;32.85;100701.91;6185053;23;20317;-61
2023/05/23 11:52:02;;;;;;;;;;;;;;;28.72;34.15;100702.50;6184964;23;19908;-62
2023/05/23 11:54:27;;;;;;;;;;;;;;;28.94;33.26;100706.47;6185126;23;19983;-62
2023/05/23 11:56:56;;;;;;;;;;;;;;;29.31;34.29;100701.75;6184744;23;19912;-62
2023/05/23 11:59:24;;;;;;;;;;;;;;;29.62;33.76;100700.97;6157998;23;19936;-61
2023/05/23 12:01:50;;;;;;;;;;;;;;;30.13;31.87;100704.31;6184935;23;19935;-61
2023/05/23 12:04:15;;;;;;;;;;;;;;;30.38;30.04;100706.41;6185334;23;19908;-62
2023/05/23 12:06:40;;;;;;;;;;;;;;;30.51;31.96;100706.59;6185132;23;19912;-62
2023/05/23 12:09:06;;;;;;;;;;;;;;;30.60;31.57;100704.66;6184981;23;19909;-61
2023/05/23 12:11:32;;;;;;;;;;;;;;;30.57;30.34;100695.06;6185006;23;19916;-62
2023/05/23 12:14:00;;;;;;;;;;;;;;;30.59;30.44;100703.88;6158574;23;19912;-61
2023/05/23 12:16:26;;;;;;;;;;;;;;;30.44;29.76;100696.81;6157994;23;19983;-62
2023/05/23 12:18:52;;;;;;;;;;;;;;;30.34;29.27;100699.88;6184905;23;19915;-63
2023/05/23 12:21:17;;;;;;;;;;;;;;;30.13;30.01;100696.00;6158847;23;20255;-62
2023/05/23 12:23:43;;;;;;;;;;;;;;;30.04;30.17;100699.59;6185200;23;19951;-62
2023/05/23 12:26:09;;;;;;;;;;;;;;;30.08;29.75;100699.75;6158265;23;20302;-60
2023/05/23 12:28:38;;;;;;;;;;;;;;;30.23;29.27;100693.78;6184585;23;20246;-62
2023/05/23 12:31:09;;;;;;;;;;;;;;;30.59;31.39;100692.78;6184927;23;19915;-61
2023/05/23 12:33:43;;;;;;;;;;;;;;;31.28;29.87;100691.19;6184790;23;19915;-61